Main page
METAR-TAF:

METAR-TAF

Airports :

Begumpet Airport

Hyderabad, India

latitude: 17-27N, longitude: 078-28E, elevation: 530 m

Current weather observation

The report was made 5 hours and 22 minutes ago, at 16:00 UTC
Wind 3 kt from variable directions
Temperature 22°C
Humidity 78%
Pressure 1012 hPa
Visibility: 6000 m
Few clouds at a height of 2000 ft

METAR: VOHY 221600Z VRB03KT 6000 FEW020 22/18 Q1012 NOSIG

Time: 02:52 (21:22 UTC)

Forecast

The report was made 10 hours and 22 minutes ago, at 11:00 UTC
Forecast valid from 22 at 12 UTC to 22 at 21 UTC
Wind 6 kt from the West/Southwest
Visibility: 6000 m
Few clouds at a height of 1500 ft
Becoming
from 22 at 16 UTC to 22 at 18 UTC
Wind 5 kt from the Southwest
Visibility: 5000 m
Few clouds at a height of 1500 ft
haze

TAF: VOHY 221100Z 2212/2221 25006KT 6000 FEW015 BECMG 2216/2218 23005KT 5000 HZ FEW015

Weather observations and forecasts of more than 4000 airports (METAR and TAF reports).

The available stations are represented by yellow and red dots on the map.

Hover mouse over dot to see the name of the station.

Then click to see weather observations and forecasts.

To change the map : click on the green buttons with a black cross to zoom in, on the green button with a dash to zoom out, or on the green arrows for adjacent maps.


METAR-TAF: